createdAt,value
2018-09-01T00:01:09.646Z,90.61
2018-09-01T00:04:13.326Z,90.36
2018-09-01T00:07:16.939Z,90.69
2018-09-01T00:10:20.580Z,90.10
2018-09-01T00:13:24.276Z,90.04
2018-09-01T00:16:28.021Z,90.45
2018-09-01T00:19:32.332Z,90.69
2018-09-01T00:22:36.022Z,90.51
2018-09-01T00:25:39.911Z,90.68
2018-09-01T00:28:43.552Z,90.60
2018-09-01T00:31:47.159Z,90.23
2018-09-01T00:34:51.435Z,90.18
2018-09-01T00:38:00.349Z,90.33
2018-09-01T00:41:04.054Z,90.74
2018-09-01T00:44:07.799Z,89.48
2018-09-01T00:47:11.594Z,90.04
2018-09-01T00:50:15.288Z,90.54
2018-09-01T00:53:18.964Z,90.79
2018-09-01T00:56:22.545Z,90.61
2018-09-01T00:59:26.371Z,91.13
2018-09-01T01:02:29.984Z,91.77
2018-09-01T01:05:33.647Z,91.84
2018-09-01T01:08:37.294Z,91.24
2018-09-01T01:11:41.014Z,91.32
2018-09-01T01:14:44.720Z,91.59
2018-09-01T01:17:48.408Z,91.30
2018-09-01T01:20:52.063Z,91.41
2018-09-01T01:23:55.918Z,91.48
2018-09-01T01:26:59.589Z,91.29
2018-09-01T01:30:03.623Z,90.84
2018-09-01T01:33:07.448Z,90.83
2018-09-01T01:36:11.107Z,91.10
2018-09-01T01:39:14.788Z,91.19
2018-09-01T01:42:19.263Z,91.35
2018-09-01T01:45:23.008Z,91.36
2018-09-01T01:48:26.724Z,92.12
2018-09-01T01:51:30.312Z,91.65
2018-09-01T01:54:33.929Z,91.51
2018-09-01T01:57:42.848Z,91.63
2018-09-01T02:00:46.475Z,91.71
2018-09-01T02:03:50.184Z,92.32
2018-09-01T02:06:53.939Z,91.78
2018-09-01T02:09:57.586Z,91.99
2018-09-01T02:13:01.248Z,91.97
2018-09-01T02:16:05.049Z,91.93
2018-09-01T02:19:08.762Z,91.29
2018-09-01T02:22:12.400Z,91.74
2018-09-01T02:25:16.240Z,90.49
2018-09-01T02:28:20.003Z,90.18
2018-09-01T02:31:23.623Z,90.67
2018-09-01T02:34:27.313Z,91.23
2018-09-01T02:37:30.947Z,91.25
2018-09-01T02:40:34.574Z,90.68
2018-09-01T02:43:38.310Z,90.36
2018-09-01T02:46:41.953Z,88.59
2018-09-01T02:49:45.583Z,89.13
2018-09-01T02:52:49.430Z,89.58
2018-09-01T02:55:53.199Z,90.14
2018-09-01T02:58:56.737Z,88.71
2018-09-01T03:02:00.403Z,88.66
2018-09-01T03:05:04.011Z,86.97
2018-09-01T03:08:07.904Z,86.89
2018-09-01T03:11:11.690Z,87.33
2018-09-01T03:14:15.386Z,88.15
2018-09-01T03:17:19.108Z,87.85
2018-09-01T03:20:22.764Z,87.86
2018-09-01T03:23:26.513Z,86.88
2018-09-01T03:26:30.231Z,86.21
2018-09-01T03:29:34.226Z,85.79
2018-09-01T03:32:38.003Z,84.63
2018-09-01T03:35:41.663Z,85.66
2018-09-01T03:38:45.354Z,85.91
2018-09-01T03:41:48.983Z,85.82
2018-09-01T03:44:52.594Z,86.33
2018-09-01T03:47:56.393Z,86.91
2018-09-01T03:51:00.074Z,85.85
2018-09-01T03:54:03.801Z,85.79
2018-09-01T03:57:07.471Z,87.34
2018-09-01T04:00:11.184Z,87.60
2018-09-01T04:03:14.801Z,87.20
2018-09-01T04:06:18.464Z,86.44
2018-09-01T04:09:22.142Z,87.14
2018-09-01T04:12:25.798Z,87.85
2018-09-01T04:15:29.509Z,88.79
2018-09-01T04:18:33.221Z,88.70
2018-09-01T04:21:36.893Z,89.04
2018-09-01T04:24:40.544Z,87.94
2018-09-01T04:27:44.274Z,88.76
2018-09-01T04:30:47.895Z,88.85
2018-09-01T04:33:51.555Z,89.48
2018-09-01T04:36:55.331Z,90.32
2018-09-01T04:39:58.941Z,89.94
2018-09-01T04:43:02.651Z,90.11
2018-09-01T04:46:06.420Z,90.53
2018-09-01T04:49:10.033Z,90.58
2018-09-01T04:52:14.006Z,90.60
2018-09-01T04:55:17.795Z,90.53
2018-09-01T04:58:21.692Z,90.55
2018-09-01T05:01:25.670Z,89.95
2018-09-01T05:04:29.700Z,90.07
2018-09-01T05:07:33.460Z,89.81
2018-09-01T05:10:37.573Z,89.36
2018-09-01T05:13:41.282Z,89.46
2018-09-01T05:16:44.997Z,88.75
2018-09-01T05:19:48.777Z,86.76
2018-09-01T05:22:52.419Z,85.85
2018-09-01T05:25:56.092Z,85.04
2018-09-01T05:28:59.790Z,84.50
2018-09-01T05:32:03.525Z,82.37
2018-09-01T05:35:07.274Z,81.73
2018-09-01T05:38:10.940Z,80.74
2018-09-01T05:41:14.648Z,80.48
2018-09-01T05:44:18.303Z,78.32
2018-09-01T05:47:21.920Z,77.51
2018-09-01T05:50:25.602Z,77.26
2018-09-01T05:53:29.429Z,73.17
2018-09-01T05:56:33.006Z,69.79
2018-09-01T05:59:36.658Z,70.07
2018-09-01T06:02:40.356Z,70.15
2018-09-01T06:05:44.213Z,70.36
2018-09-01T06:08:47.778Z,71.41
2018-09-01T06:11:51.431Z,74.65
2018-09-01T06:14:55.202Z,72.37
2018-09-01T06:17:59.120Z,70.49
2018-09-01T06:21:02.826Z,69.10
2018-09-01T06:24:06.885Z,67.61
2018-09-01T06:27:16.713Z,69.53
2018-09-01T06:30:29.302Z,67.31
2018-09-01T06:33:33.037Z,67.61
2018-09-01T06:36:36.610Z,68.15
2018-09-01T06:39:40.364Z,69.37
2018-09-01T06:42:44.222Z,67.94
2018-09-01T06:45:47.937Z,65.78
2018-09-01T06:48:51.980Z,66.95
2018-09-01T06:51:55.770Z,64.94
2018-09-01T06:54:59.534Z,66.35
2018-09-01T06:58:03.198Z,66.36
2018-09-01T07:01:07.348Z,66.67
2018-09-01T07:04:11.026Z,66.63
2018-09-01T07:07:14.958Z,66.08
2018-09-01T07:10:19.089Z,66.32
2018-09-01T07:13:22.757Z,67.73
2018-09-01T07:16:26.505Z,67.86
2018-09-01T07:19:30.178Z,69.71
2018-09-01T07:22:33.831Z,69.96
2018-09-01T07:25:37.509Z,70.04
2018-09-01T07:28:41.264Z,69.02
2018-09-01T07:31:44.893Z,67.20
2018-09-01T07:34:48.775Z,67.01
2018-09-01T07:37:52.450Z,67.58
2018-09-01T07:40:56.278Z,67.25
2018-09-01T07:43:59.999Z,66.80
2018-09-01T07:47:03.671Z,67.56
2018-09-01T07:50:07.398Z,68.07
2018-09-01T07:53:11.128Z,68.00
2018-09-01T07:56:14.900Z,65.79
2018-09-01T07:59:18.529Z,66.32
2018-09-01T08:02:22.261Z,66.31
2018-09-01T08:05:26.000Z,66.57
2018-09-01T08:08:29.745Z,66.02
2018-09-01T08:11:33.418Z,66.28
2018-09-01T08:14:37.111Z,67.00
2018-09-01T08:17:40.813Z,66.49
2018-09-01T08:20:44.379Z,64.61
2018-09-01T08:23:48.124Z,66.34
2018-09-01T08:26:51.828Z,66.03
2018-09-01T08:29:55.488Z,64.30
2018-09-01T08:32:59.142Z,65.83
2018-09-01T08:36:02.843Z,66.64
2018-09-01T08:39:07.916Z,66.94
2018-09-01T08:42:11.713Z,69.67
2018-09-01T08:45:15.428Z,67.94
2018-09-01T08:48:19.157Z,69.12
2018-09-01T08:51:22.930Z,67.42
2018-09-01T08:54:26.568Z,67.09
2018-09-01T08:57:30.235Z,68.03
2018-09-01T09:00:33.962Z,68.67
2018-09-01T09:03:37.734Z,67.50
2018-09-01T09:06:41.492Z,66.96
2018-09-01T09:09:45.208Z,68.08
2018-09-01T09:12:48.968Z,67.70
2018-09-01T09:15:52.645Z,65.17
2018-09-01T09:18:56.447Z,65.36
2018-09-01T09:22:00.276Z,66.38
2018-09-01T09:25:03.919Z,66.62
2018-09-01T09:28:07.864Z,68.46
2018-09-01T09:31:11.558Z,67.33
2018-09-01T09:34:15.210Z,66.77
2018-09-01T09:37:18.929Z,62.31
2018-09-01T09:40:22.651Z,60.32
2018-09-01T09:43:26.443Z,62.81
2018-09-01T09:46:30.058Z,62.40
2018-09-01T09:49:33.714Z,63.60
2018-09-01T09:52:37.374Z,64.19
2018-09-01T09:55:41.180Z,64.09
2018-09-01T09:58:44.982Z,64.59
2018-09-01T10:01:48.779Z,61.67
2018-09-01T10:04:52.484Z,61.15
2018-09-01T10:07:56.189Z,60.59
2018-09-01T10:10:59.860Z,60.05
2018-09-01T10:14:03.583Z,60.33
2018-09-01T10:17:07.368Z,61.08
2018-09-01T10:20:11.059Z,62.95
2018-09-01T10:23:14.733Z,62.02
2018-09-01T10:26:18.418Z,60.07
2018-09-01T10:29:22.089Z,58.07
2018-09-01T10:32:25.909Z,62.49
2018-09-01T10:35:29.658Z,60.95
2018-09-01T10:38:33.427Z,60.12
2018-09-01T10:41:37.154Z,58.27
2018-09-01T10:44:40.851Z,58.56
2018-09-01T10:47:44.649Z,60.42
2018-09-01T10:50:48.308Z,60.30
2018-09-01T10:53:51.967Z,59.65
2018-09-01T10:56:55.673Z,57.98
2018-09-01T10:59:59.425Z,56.89
2018-09-01T11:03:03.138Z,56.47
2018-09-01T11:06:07.043Z,55.50
2018-09-01T11:09:11.326Z,57.07
2018-09-01T11:12:15.069Z,54.39
2018-09-01T11:15:18.785Z,55.99
2018-09-01T11:18:22.421Z,57.21
2018-09-01T11:21:26.190Z,59.66
2018-09-01T11:24:30.049Z,58.59
2018-09-01T11:27:33.824Z,59.13
2018-09-01T11:30:37.609Z,56.82
2018-09-01T11:33:41.547Z,57.88
2018-09-01T11:36:45.321Z,58.86
2018-09-01T11:39:48.993Z,59.27
2018-09-01T11:42:52.703Z,59.16
2018-09-01T11:45:56.524Z,59.05
2018-09-01T11:49:00.270Z,59.05
2018-09-01T11:52:04.253Z,59.68
2018-09-01T11:55:07.940Z,59.30
2018-09-01T11:58:11.710Z,57.87
2018-09-01T12:01:15.451Z,54.55
2018-09-01T12:04:19.264Z,53.86
2018-09-01T12:07:22.974Z,51.85
2018-09-01T12:10:26.806Z,51.44
2018-09-01T12:13:30.630Z,51.03
2018-09-01T12:16:34.325Z,49.97
2018-09-01T12:19:37.989Z,52.43
2018-09-01T12:22:41.761Z,53.37
2018-09-01T12:25:45.479Z,51.13
2018-09-01T12:28:49.182Z,53.22
2018-09-01T12:31:52.860Z,51.18
2018-09-01T12:34:56.563Z,51.04
2018-09-01T12:38:00.231Z,52.47
2018-09-01T12:41:04.030Z,51.22
2018-09-01T12:44:07.883Z,50.29
2018-09-01T12:47:11.561Z,48.69
2018-09-01T12:50:15.258Z,48.70
2018-09-01T12:53:19.439Z,47.79
2018-09-01T12:56:23.150Z,47.18
2018-09-01T12:59:27.919Z,46.14
2018-09-01T13:02:31.924Z,45.98
2018-09-01T13:05:35.630Z,50.61
2018-09-01T13:08:39.324Z,48.09
2018-09-01T13:11:42.980Z,45.33
2018-09-01T13:14:46.693Z,45.62
2018-09-01T13:17:50.628Z,47.49
2018-09-01T13:20:54.401Z,47.94
2018-09-01T13:23:58.014Z,48.60
2018-09-01T13:27:01.687Z,47.30
2018-09-01T13:30:05.632Z,49.03
2018-09-01T13:33:09.405Z,48.76
2018-09-01T13:36:13.077Z,48.95
2018-09-01T13:39:16.833Z,49.04
2018-09-01T13:42:20.465Z,50.57
2018-09-01T13:45:24.232Z,55.12
2018-09-01T13:48:28.074Z,49.77
2018-09-01T13:51:31.810Z,48.48
2018-09-01T13:54:35.422Z,45.36
2018-09-01T13:57:39.140Z,46.01
2018-09-01T14:00:42.836Z,47.42
2018-09-01T14:03:46.516Z,47.54
2018-09-01T14:06:50.252Z,50.71
2018-09-01T14:09:53.922Z,51.13
2018-09-01T14:12:57.641Z,51.01
2018-09-01T14:16:01.312Z,50.06
2018-09-01T14:19:05.293Z,51.88
2018-09-01T14:22:08.984Z,51.93
2018-09-01T14:25:12.675Z,49.50
2018-09-01T14:28:16.457Z,51.81
2018-09-01T14:31:20.242Z,53.76
2018-09-01T14:34:23.963Z,54.22
2018-09-01T14:37:27.600Z,55.50
2018-09-01T14:40:31.429Z,55.88
2018-09-01T14:43:35.433Z,56.14
2018-09-01T14:46:39.236Z,56.83
2018-09-01T14:49:42.879Z,55.57
2018-09-01T14:52:47.846Z,56.74
2018-09-01T14:55:51.512Z,56.78
2018-09-01T14:58:55.353Z,56.44
2018-09-01T15:01:59.122Z,56.84
2018-09-01T15:05:02.886Z,55.73
2018-09-01T15:08:06.684Z,56.20
2018-09-01T15:11:10.409Z,56.20
2018-09-01T15:14:14.233Z,55.06
2018-09-01T15:17:17.866Z,55.07
2018-09-01T15:20:21.840Z,54.73
2018-09-01T15:23:25.821Z,53.15
2018-09-01T15:26:29.587Z,53.24
2018-09-01T15:29:33.317Z,53.09
2018-09-01T15:32:37.183Z,51.82
2018-09-01T15:35:40.760Z,51.51
2018-09-01T15:38:44.457Z,51.19
2018-09-01T15:41:48.243Z,53.84
2018-09-01T15:44:51.978Z,53.64
2018-09-01T15:47:55.976Z,50.45
2018-09-01T15:50:59.792Z,49.68
2018-09-01T15:54:03.593Z,48.55
2018-09-01T15:57:07.307Z,48.77
2018-09-01T16:00:11.085Z,50.19
2018-09-01T16:03:14.932Z,49.55
2018-09-01T16:06:18.617Z,49.58
2018-09-01T16:09:22.450Z,50.10
2018-09-01T16:12:26.072Z,51.15
2018-09-01T16:15:29.779Z,51.83
2018-09-01T16:18:33.455Z,53.15
2018-09-01T16:21:37.439Z,54.89
2018-09-01T16:24:41.266Z,54.50
2018-09-01T16:27:45.108Z,54.89
2018-09-01T16:30:48.859Z,55.71
2018-09-01T16:33:52.641Z,56.94
2018-09-01T16:36:56.482Z,57.20
2018-09-01T16:40:00.201Z,57.84
2018-09-01T16:43:03.936Z,58.92
2018-09-01T16:46:07.698Z,59.81
2018-09-01T16:49:11.348Z,60.01
2018-09-01T16:52:15.140Z,61.65
2018-09-01T16:55:18.795Z,61.60
2018-09-01T16:58:22.570Z,62.40
2018-09-01T17:01:26.293Z,63.30
2018-09-01T17:04:30.214Z,63.60
2018-09-01T17:07:34.218Z,64.03
2018-09-01T17:10:37.938Z,64.86
2018-09-01T17:13:41.703Z,65.13
2018-09-01T17:16:45.362Z,65.65
2018-09-01T17:19:48.990Z,66.15
2018-09-01T17:22:52.775Z,66.77
2018-09-01T17:25:56.467Z,66.65
2018-09-01T17:29:00.303Z,67.26
2018-09-01T17:32:04.131Z,66.28
2018-09-01T17:35:08.093Z,66.51
2018-09-01T17:38:11.689Z,67.44
2018-09-01T17:41:15.392Z,68.23
2018-09-01T17:44:19.170Z,68.14
2018-09-01T17:47:22.857Z,69.31
2018-09-01T17:50:26.571Z,70.43
2018-09-01T17:53:30.430Z,70.08
2018-09-01T17:56:34.278Z,69.79
2018-09-01T17:59:37.983Z,70.44
2018-09-01T18:02:41.652Z,71.88
2018-09-01T18:05:45.503Z,72.61
2018-09-01T18:08:49.317Z,72.30
2018-09-01T18:11:53.014Z,73.07
2018-09-01T18:14:56.768Z,73.74
2018-09-01T18:18:00.556Z,73.33
2018-09-01T18:21:04.358Z,73.67
2018-09-01T18:24:08.133Z,73.99
2018-09-01T18:27:11.948Z,74.77
2018-09-01T18:30:15.643Z,75.07
2018-09-01T18:33:19.356Z,75.42
2018-09-01T18:36:23.055Z,75.29
2018-09-01T18:39:26.860Z,74.62
2018-09-01T18:42:30.777Z,74.19
2018-09-01T18:45:34.492Z,74.48
2018-09-01T18:48:38.200Z,74.33
2018-09-01T18:51:41.994Z,74.62
2018-09-01T18:54:45.732Z,73.99
2018-09-01T18:57:49.490Z,74.23
2018-09-01T19:00:53.123Z,73.43
2018-09-01T19:03:56.892Z,73.99
2018-09-01T19:07:00.689Z,73.81
2018-09-01T19:10:04.468Z,74.37
2018-09-01T19:13:08.146Z,74.17
2018-09-01T19:16:11.944Z,74.73
2018-09-01T19:19:15.589Z,74.58
2018-09-01T19:22:19.335Z,74.39
2018-09-01T19:25:23.182Z,74.47
2018-09-01T19:28:26.857Z,74.51
2018-09-01T19:31:30.529Z,74.13
2018-09-01T19:34:34.235Z,74.55
2018-09-01T19:37:38.069Z,74.65
2018-09-01T19:40:41.972Z,74.59
2018-09-01T19:43:45.746Z,74.92
2018-09-01T19:46:49.426Z,74.84
2018-09-01T19:49:53.293Z,75.93
2018-09-01T19:52:57.171Z,75.80
2018-09-01T19:56:00.903Z,76.46
2018-09-01T19:59:04.844Z,76.51
2018-09-01T20:02:08.530Z,76.90
2018-09-01T20:05:12.309Z,77.15
2018-09-01T20:08:15.962Z,77.48
2018-09-01T20:11:19.878Z,77.48
2018-09-01T20:14:23.590Z,77.89
2018-09-01T20:17:27.531Z,78.48
2018-09-01T20:20:31.254Z,78.38
2018-09-01T20:23:34.995Z,77.97
2018-09-01T20:26:38.960Z,78.44
2018-09-01T20:29:42.703Z,78.75
2018-09-01T20:32:46.401Z,78.88
2018-09-01T20:35:55.209Z,79.45
2018-09-01T20:38:58.900Z,79.68
2018-09-01T20:42:02.677Z,79.77
2018-09-01T20:45:06.463Z,79.75
2018-09-01T20:48:11.018Z,80.28
2018-09-01T20:51:15.270Z,80.43
2018-09-01T20:54:18.892Z,80.19
2018-09-01T20:57:22.622Z,80.51
2018-09-01T21:00:26.346Z,80.19
2018-09-01T21:03:30.122Z,80.67
2018-09-01T21:06:33.840Z,80.97
2018-09-01T21:09:37.535Z,81.47
2018-09-01T21:12:41.128Z,81.36
2018-09-01T21:15:44.937Z,81.36
2018-09-01T21:18:48.572Z,81.54
2018-09-01T21:22:10.947Z,81.85
2018-09-01T21:25:15.552Z,82.30
2018-09-01T21:28:19.816Z,82.45
2018-09-01T21:31:24.317Z,82.56
2018-09-01T21:34:28.095Z,82.09
2018-09-01T21:37:31.859Z,81.44
2018-09-01T21:40:35.488Z,81.28
2018-09-01T21:43:39.228Z,81.31
2018-09-01T21:46:42.955Z,80.43
2018-09-01T21:49:46.944Z,80.49
2018-09-01T21:52:50.745Z,80.94
2018-09-01T21:55:55.105Z,81.08
2018-09-01T21:58:59.582Z,81.53
2018-09-01T22:02:08.647Z,81.21
2018-09-01T22:05:15.385Z,81.55
2018-09-01T22:08:19.092Z,81.67
2018-09-01T22:11:22.764Z,81.80
2018-09-01T22:14:26.532Z,81.73
2018-09-01T22:17:30.232Z,82.11
2018-09-01T22:20:34.176Z,82.50
2018-09-01T22:23:38.582Z,82.61
2018-09-01T22:26:42.232Z,82.86
2018-09-01T22:29:45.965Z,83.03
2018-09-01T22:32:49.839Z,83.25
2018-09-01T22:35:53.520Z,83.45
2018-09-01T22:38:57.281Z,83.31
2018-09-01T22:42:01.037Z,83.37
2018-09-01T22:45:04.957Z,83.28
2018-09-01T22:48:08.709Z,83.93
2018-09-01T22:51:12.415Z,84.72
2018-09-01T22:54:15.956Z,85.25
2018-09-01T22:57:19.938Z,85.47
2018-09-01T23:00:23.619Z,86.28
2018-09-01T23:03:27.369Z,86.27
2018-09-01T23:06:31.111Z,86.38
2018-09-01T23:09:34.792Z,86.59
2018-09-01T23:12:38.407Z,86.82
2018-09-01T23:15:42.100Z,86.57
2018-09-01T23:18:45.806Z,86.14
2018-09-01T23:21:49.490Z,85.95
2018-09-01T23:24:53.294Z,86.07
2018-09-01T23:27:57.101Z,86.25
2018-09-01T23:31:00.817Z,86.36
2018-09-01T23:34:04.527Z,86.62
2018-09-01T23:37:08.131Z,86.81
2018-09-01T23:40:11.761Z,87.26
2018-09-01T23:43:15.415Z,87.43
2018-09-01T23:46:19.068Z,87.30
2018-09-01T23:49:22.759Z,87.12
2018-09-01T23:52:26.450Z,86.87
2018-09-01T23:55:30.097Z,87.10
2018-09-01T23:58:33.735Z,87.43
